Current Weather

Norman Y Mineta San Jose Intl

San Jose, California (KSJC)

Report from: Friday, July 12, 2024 3:53 PM PDT
Current time: Friday, July 12, 2024 5:13 PM PDT

Nearby weather – Weather history – Daily summaries
Weather forecast

Temperature31.1°C (88.0°F)
Heat index31.6°C (88.9°F)
Dew point17.2°C (63.0°F)
Winds 11 kts (5.7 m/s, 12.7 mph) Northwest (310°)
Visibility8 mi. (12.9 km)
Clouds Few clouds 4,000 ft. (1,219 m)
Altimeter29.80 in.Hg (1009 mB)
Relative humidity43 %
Density altitude2,249 ft. (686 m)
Sea-level pressure100.9 kPa (1009 mB, 29.80 in.Hg)
Remarks Automated weather observing station with precipitation discriminator
Flight conditions Visual Meteorological Conditions
Raw dataKSJC 122253Z 31011KT 8SM FEW040 31/17 A2980 RMK AO2 SLP091 T03110172
An unhandled exception has occurred. See browser dev tools for details. Reload 🗙